sensor_id;sensor_type;location;lat;lon;timestamp;P1;durP1;ratioP1;P2;durP2;ratioP2
3985;SDS011;2007;48.750;9.278;2024-03-23T00:56:19;4.63;;;3.43;;
3985;SDS011;2007;48.750;9.278;2024-03-23T00:58:45;4.57;;;3.80;;
3985;SDS011;2007;48.750;9.278;2024-03-23T01:01:12;4.77;;;3.17;;
3985;SDS011;2007;48.750;9.278;2024-03-23T01:03:38;5.20;;;3.63;;
3985;SDS011;2007;48.750;9.278;2024-03-23T01:06:05;4.30;;;3.60;;
3985;SDS011;2007;48.750;9.278;2024-03-23T01:08:31;5.50;;;3.17;;
3985;SDS011;2007;48.750;9.278;2024-03-23T01:11:00;4.43;;;4.00;;
3985;SDS011;2007;48.750;9.278;2024-03-23T01:13:26;3.67;;;3.37;;
3985;SDS011;2007;48.750;9.278;2024-03-23T01:15:54;4.27;;;3.30;;
3985;SDS011;2007;48.750;9.278;2024-03-23T01:18:22;3.13;;;2.83;;
3985;SDS011;2007;48.750;9.278;2024-03-23T01:20:51;4.87;;;3.83;;
3985;SDS011;2007;48.750;9.278;2024-03-23T01:23:17;4.63;;;3.63;;
3985;SDS011;2007;48.750;9.278;2024-03-23T01:25:51;3.70;;;3.40;;
3985;SDS011;2007;48.750;9.278;2024-03-23T01:28:19;4.73;;;3.60;;
3985;SDS011;2007;48.750;9.278;2024-03-23T01:30:46;5.80;;;3.40;;
3985;SDS011;2007;48.750;9.278;2024-03-23T01:33:12;4.87;;;3.87;;
3985;SDS011;2007;48.750;9.278;2024-03-23T01:35:39;4.17;;;3.77;;
3985;SDS011;2007;48.750;9.278;2024-03-23T01:38:05;4.13;;;3.47;;
3985;SDS011;2007;48.750;9.278;2024-03-23T01:40:32;5.83;;;3.83;;
3985;SDS011;2007;48.750;9.278;2024-03-23T01:42:59;5.90;;;4.00;;
3985;SDS011;2007;48.750;9.278;2024-03-23T01:45:32;4.47;;;3.80;;
3985;SDS011;2007;48.750;9.278;2024-03-23T01:47:58;4.63;;;3.60;;
3985;SDS011;2007;48.750;9.278;2024-03-23T01:50:25;4.30;;;3.90;;
3985;SDS011;2007;48.750;9.278;2024-03-23T01:52:52;4.07;;;3.57;;
3985;SDS011;2007;48.750;9.278;2024-03-23T01:55:19;5.03;;;3.87;;
3985;SDS011;2007;48.750;9.278;2024-03-23T01:57:45;6.57;;;3.97;;
3985;SDS011;2007;48.750;9.278;2024-03-23T02:00:13;4.27;;;3.87;;
3985;SDS011;2007;48.750;9.278;2024-03-23T02:02:44;4.40;;;3.50;;
3985;SDS011;2007;48.750;9.278;2024-03-23T02:05:11;3.70;;;3.40;;
3985;SDS011;2007;48.750;9.278;2024-03-23T02:07:38;4.03;;;3.63;;
3985;SDS011;2007;48.750;9.278;2024-03-23T02:10:06;5.07;;;4.40;;
3985;SDS011;2007;48.750;9.278;2024-03-23T02:12:32;4.03;;;3.63;;
3985;SDS011;2007;48.750;9.278;2024-03-23T02:14:59;3.77;;;3.43;;
3985;SDS011;2007;48.750;9.278;2024-03-23T02:17:25;3.83;;;3.50;;
3985;SDS011;2007;48.750;9.278;2024-03-23T02:19:54;4.00;;;3.63;;
3985;SDS011;2007;48.750;9.278;2024-03-23T02:22:20;4.30;;;3.90;;
3985;SDS011;2007;48.750;9.278;2024-03-23T02:24:48;5.30;;;3.83;;
3985;SDS011;2007;48.750;9.278;2024-03-23T02:27:14;4.10;;;3.50;;
3985;SDS011;2007;48.750;9.278;2024-03-23T02:29:41;4.30;;;3.90;;
3985;SDS011;2007;48.750;9.278;2024-03-23T02:32:07;6.23;;;3.87;;
3985;SDS011;2007;48.750;9.278;2024-03-23T02:34:35;5.40;;;4.00;;
3985;SDS011;2007;48.750;9.278;2024-03-23T02:37:02;5.73;;;3.73;;
3985;SDS011;2007;48.750;9.278;2024-03-23T02:39:36;4.27;;;3.87;;
3985;SDS011;2007;48.750;9.278;2024-03-23T02:42:03;5.87;;;3.70;;
3985;SDS011;2007;48.750;9.278;2024-03-23T02:44:31;4.30;;;3.40;;
3985;SDS011;2007;48.750;9.278;2024-03-23T02:46:57;4.50;;;3.97;;
3985;SDS011;2007;48.750;9.278;2024-03-23T02:49:24;3.77;;;3.43;;
3985;SDS011;2007;48.750;9.278;2024-03-23T02:51:50;5.27;;;3.90;;
3985;SDS011;2007;48.750;9.278;2024-03-23T02:54:17;3.40;;;3.10;;
3985;SDS011;2007;48.750;9.278;2024-03-23T02:56:43;3.50;;;3.10;;
3985;SDS011;2007;48.750;9.278;2024-03-23T02:59:12;3.67;;;3.30;;
3985;SDS011;2007;48.750;9.278;2024-03-23T03:01:38;3.90;;;3.20;;
3985;SDS011;2007;48.750;9.278;2024-03-23T03:04:05;3.70;;;3.30;;
3985;SDS011;2007;48.750;9.278;2024-03-23T03:06:31;4.37;;;3.97;;
3985;SDS011;2007;48.750;9.278;2024-03-23T03:08:58;4.50;;;4.10;;
3985;SDS011;2007;48.750;9.278;2024-03-23T03:11:24;4.17;;;3.47;;
3985;SDS011;2007;48.750;9.278;2024-03-23T03:13:51;5.27;;;4.10;;
3985;SDS011;2007;48.750;9.278;2024-03-23T03:16:19;4.30;;;3.60;;
3985;SDS011;2007;48.750;9.278;2024-03-23T03:18:46;4.00;;;3.40;;
3985;SDS011;2007;48.750;9.278;2024-03-23T03:21:14;4.20;;;3.80;;
3985;SDS011;2007;48.750;9.278;2024-03-23T03:23:42;4.83;;;3.70;;
3985;SDS011;2007;48.750;9.278;2024-03-23T03:26:08;4.93;;;3.73;;
3985;SDS011;2007;48.750;9.278;2024-03-23T03:28:35;3.93;;;3.63;;
3985;SDS011;2007;48.750;9.278;2024-03-23T03:31:00;3.83;;;3.43;;
3985;SDS011;2007;48.750;9.278;2024-03-23T03:33:29;4.57;;;4.07;;
3985;SDS011;2007;48.750;9.278;2024-03-23T03:35:55;3.40;;;3.10;;
3985;SDS011;2007;48.750;9.278;2024-03-23T03:38:22;3.83;;;3.40;;
3985;SDS011;2007;48.750;9.278;2024-03-23T03:40:48;3.57;;;3.27;;
3985;SDS011;2007;48.750;9.278;2024-03-23T03:43:15;4.30;;;3.90;;
3985;SDS011;2007;48.750;9.278;2024-03-23T03:45:41;3.90;;;3.37;;
3985;SDS011;2007;48.750;9.278;2024-03-23T03:48:08;3.80;;;3.40;;
3985;SDS011;2007;48.750;9.278;2024-03-23T03:50:35;4.50;;;3.80;;
3985;SDS011;2007;48.750;9.278;2024-03-23T03:53:02;4.20;;;3.37;;
3985;SDS011;2007;48.750;9.278;2024-03-23T03:55:28;3.77;;;3.37;;
3985;SDS011;2007;48.750;9.278;2024-03-23T03:57:55;3.93;;;3.53;;
3985;SDS011;2007;48.750;9.278;2024-03-23T04:00:21;4.37;;;3.97;;
3985;SDS011;2007;48.750;9.278;2024-03-23T04:02:48;3.97;;;3.57;;
3985;SDS011;2007;48.750;9.278;2024-03-23T04:05:15;4.40;;;4.00;;
3985;SDS011;2007;48.750;9.278;2024-03-23T04:07:43;4.23;;;3.60;;
3985;SDS011;2007;48.750;9.278;2024-03-23T04:10:09;3.63;;;3.30;;
3985;SDS011;2007;48.750;9.278;2024-03-23T04:12:36;4.10;;;3.80;;
3985;SDS011;2007;48.750;9.278;2024-03-23T04:15:02;3.77;;;3.47;;
3985;SDS011;2007;48.750;9.278;2024-03-23T04:17:30;4.53;;;3.93;;
3985;SDS011;2007;48.750;9.278;2024-03-23T04:19:58;4.03;;;3.60;;
3985;SDS011;2007;48.750;9.278;2024-03-23T04:22:25;4.37;;;3.97;;
3985;SDS011;2007;48.750;9.278;2024-03-23T04:24:53;4.37;;;3.57;;
3985;SDS011;2007;48.750;9.278;2024-03-23T04:27:21;4.70;;;4.07;;
3985;SDS011;2007;48.750;9.278;2024-03-23T04:29:47;4.40;;;3.93;;
3985;SDS011;2007;48.750;9.278;2024-03-23T04:32:15;3.43;;;3.13;;
3985;SDS011;2007;48.750;9.278;2024-03-23T04:34:42;4.53;;;4.13;;
3985;SDS011;2007;48.750;9.278;2024-03-23T04:37:09;3.50;;;3.20;;
3985;SDS011;2007;48.750;9.278;2024-03-23T04:39:37;4.33;;;3.40;;
3985;SDS011;2007;48.750;9.278;2024-03-23T04:42:06;3.93;;;3.53;;
3985;SDS011;2007;48.750;9.278;2024-03-23T04:44:33;4.37;;;3.30;;
3985;SDS011;2007;48.750;9.278;2024-03-23T04:47:00;4.47;;;3.70;;
3985;SDS011;2007;48.750;9.278;2024-03-23T04:49:27;3.77;;;3.33;;
3985;SDS011;2007;48.750;9.278;2024-03-23T04:51:53;5.97;;;3.53;;
3985;SDS011;2007;48.750;9.278;2024-03-23T04:54:20;4.60;;;3.97;;
3985;SDS011;2007;48.750;9.278;2024-03-23T04:56:47;5.00;;;4.03;;
3985;SDS011;2007;48.750;9.278;2024-03-23T04:59:15;3.97;;;3.27;;
3985;SDS011;2007;48.750;9.278;2024-03-23T05:01:41;4.23;;;3.20;;
3985;SDS011;2007;48.750;9.278;2024-03-23T05:04:08;3.60;;;3.30;;
3985;SDS011;2007;48.750;9.278;2024-03-23T05:06:35;3.97;;;3.57;;
3985;SDS011;2007;48.750;9.278;2024-03-23T05:09:02;3.63;;;3.30;;
3985;SDS011;2007;48.750;9.278;2024-03-23T05:11:31;4.40;;;3.60;;
3985;SDS011;2007;48.750;9.278;2024-03-23T05:13:58;4.60;;;4.17;;
3985;SDS011;2007;48.750;9.278;2024-03-23T05:16:27;3.73;;;3.30;;
3985;SDS011;2007;48.750;9.278;2024-03-23T05:18:54;3.90;;;3.50;;
3985;SDS011;2007;48.750;9.278;2024-03-23T05:21:21;4.10;;;3.60;;
3985;SDS011;2007;48.750;9.278;2024-03-23T05:23:47;4.77;;;3.40;;
3985;SDS011;2007;48.750;9.278;2024-03-23T05:26:14;4.20;;;3.37;;
3985;SDS011;2007;48.750;9.278;2024-03-23T05:28:40;4.10;;;3.70;;
3985;SDS011;2007;48.750;9.278;2024-03-23T05:31:07;4.60;;;3.57;;
3985;SDS011;2007;48.750;9.278;2024-03-23T05:33:35;3.47;;;3.17;;
3985;SDS011;2007;48.750;9.278;2024-03-23T05:36:03;3.73;;;3.20;;
3985;SDS011;2007;48.750;9.278;2024-03-23T05:38:30;3.20;;;2.90;;
3985;SDS011;2007;48.750;9.278;2024-03-23T05:40:57;3.60;;;3.20;;
3985;SDS011;2007;48.750;9.278;2024-03-23T05:43:24;3.40;;;3.10;;
3985;SDS011;2007;48.750;9.278;2024-03-23T05:45:54;3.70;;;3.40;;
3985;SDS011;2007;48.750;9.278;2024-03-23T05:48:21;3.13;;;2.83;;
3985;SDS011;2007;48.750;9.278;2024-03-23T05:50:49;4.63;;;3.60;;
3985;SDS011;2007;48.750;9.278;2024-03-23T05:53:16;5.07;;;3.97;;
3985;SDS011;2007;48.750;9.278;2024-03-23T05:55:43;4.33;;;3.80;;
3985;SDS011;2007;48.750;9.278;2024-03-23T05:58:09;4.40;;;3.97;;
3985;SDS011;2007;48.750;9.278;2024-03-23T06:00:36;3.87;;;3.53;;
3985;SDS011;2007;48.750;9.278;2024-03-23T06:03:02;3.60;;;3.30;;
3985;SDS011;2007;48.750;9.278;2024-03-23T06:05:30;4.00;;;3.60;;
3985;SDS011;2007;48.750;9.278;2024-03-23T06:07:57;3.37;;;3.07;;
3985;SDS011;2007;48.750;9.278;2024-03-23T06:10:24;5.30;;;3.30;;
3985;SDS011;2007;48.750;9.278;2024-03-23T06:12:50;4.40;;;3.33;;
3985;SDS011;2007;48.750;9.278;2024-03-23T06:15:18;3.50;;;3.00;;
3985;SDS011;2007;48.750;9.278;2024-03-23T06:17:44;4.70;;;3.17;;
3985;SDS011;2007;48.750;9.278;2024-03-23T06:20:12;4.90;;;4.40;;
3985;SDS011;2007;48.750;9.278;2024-03-23T06:22:38;3.73;;;3.40;;
3985;SDS011;2007;48.750;9.278;2024-03-23T06:25:07;3.40;;;3.10;;
3985;SDS011;2007;48.750;9.278;2024-03-23T06:27:33;4.00;;;3.40;;
3985;SDS011;2007;48.750;9.278;2024-03-23T06:30:00;4.60;;;3.83;;
3985;SDS011;2007;48.750;9.278;2024-03-23T06:32:27;3.67;;;3.27;;
3985;SDS011;2007;48.750;9.278;2024-03-23T06:34:54;3.90;;;2.80;;
3985;SDS011;2007;48.750;9.278;2024-03-23T06:37:20;2.73;;;2.40;;
3985;SDS011;2007;48.750;9.278;2024-03-23T06:39:47;3.23;;;2.90;;
3985;SDS011;2007;48.750;9.278;2024-03-23T06:42:14;3.80;;;3.40;;
3985;SDS011;2007;48.750;9.278;2024-03-23T06:44:41;3.23;;;2.93;;
3985;SDS011;2007;48.750;9.278;2024-03-23T06:47:08;3.47;;;3.03;;
3985;SDS011;2007;48.750;9.278;2024-03-23T06:49:35;3.27;;;2.97;;
3985;SDS011;2007;48.750;9.278;2024-03-23T06:52:02;3.50;;;3.17;;
3985;SDS011;2007;48.750;9.278;2024-03-23T06:54:29;3.50;;;2.50;;
3985;SDS011;2007;48.750;9.278;2024-03-23T06:56:56;3.17;;;2.87;;
3985;SDS011;2007;48.750;9.278;2024-03-23T06:59:23;3.30;;;3.00;;
3985;SDS011;2007;48.750;9.278;2024-03-23T07:01:50;3.50;;;2.93;;
3985;SDS011;2007;48.750;9.278;2024-03-23T07:04:16;4.27;;;2.97;;
3985;SDS011;2007;48.750;9.278;2024-03-23T07:06:44;4.20;;;2.77;;
3985;SDS011;2007;48.750;9.278;2024-03-23T07:09:10;3.07;;;2.40;;
3985;SDS011;2007;48.750;9.278;2024-03-23T07:11:37;2.50;;;2.30;;
3985;SDS011;2007;48.750;9.278;2024-03-23T07:14:03;3.10;;;2.80;;
3985;SDS011;2007;48.750;9.278;2024-03-23T07:16:32;3.10;;;2.77;;
3985;SDS011;2007;48.750;9.278;2024-03-23T07:18:59;2.63;;;2.40;;
3985;SDS011;2007;48.750;9.278;2024-03-23T07:21:26;3.00;;;2.70;;
3985;SDS011;2007;48.750;9.278;2024-03-23T07:23:52;4.70;;;3.37;;
3985;SDS011;2007;48.750;9.278;2024-03-23T07:26:19;3.30;;;2.47;;
3985;SDS011;2007;48.750;9.278;2024-03-23T07:28:45;3.87;;;2.90;;
3985;SDS011;2007;48.750;9.278;2024-03-23T07:31:13;2.53;;;2.33;;
3985;SDS011;2007;48.750;9.278;2024-03-23T07:33:43;3.00;;;2.70;;
3985;SDS011;2007;48.750;9.278;2024-03-23T07:36:12;3.50;;;2.33;;
3985;SDS011;2007;48.750;9.278;2024-03-23T07:38:40;3.37;;;2.30;;
3985;SDS011;2007;48.750;9.278;2024-03-23T07:41:07;3.90;;;2.53;;
3985;SDS011;2007;48.750;9.278;2024-03-23T07:43:35;2.80;;;2.33;;
3985;SDS011;2007;48.750;9.278;2024-03-23T07:46:02;2.43;;;2.23;;
3985;SDS011;2007;48.750;9.278;2024-03-23T07:48:29;3.90;;;3.07;;
3985;SDS011;2007;48.750;9.278;2024-03-23T07:51:01;2.50;;;2.30;;
3985;SDS011;2007;48.750;9.278;2024-03-23T07:53:28;2.40;;;1.90;;
3985;SDS011;2007;48.750;9.278;2024-03-23T07:55:56;4.00;;;2.83;;
3985;SDS011;2007;48.750;9.278;2024-03-23T07:58:23;2.70;;;2.50;;
3985;SDS011;2007;48.750;9.278;2024-03-23T08:00:50;2.63;;;2.30;;
3985;SDS011;2007;48.750;9.278;2024-03-23T08:03:17;2.90;;;2.40;;
3985;SDS011;2007;48.750;9.278;2024-03-23T08:05:44;2.50;;;2.03;;
3985;SDS011;2007;48.750;9.278;2024-03-23T08:08:11;2.97;;;1.93;;
3985;SDS011;2007;48.750;9.278;2024-03-23T08:10:46;2.87;;;2.50;;
3985;SDS011;2007;48.750;9.278;2024-03-23T08:13:13;2.50;;;2.30;;
3985;SDS011;2007;48.750;9.278;2024-03-23T08:15:40;2.40;;;2.20;;
3985;SDS011;2007;48.750;9.278;2024-03-23T08:18:07;3.23;;;2.23;;
3985;SDS011;2007;48.750;9.278;2024-03-23T08:20:35;2.43;;;2.20;;
3985;SDS011;2007;48.750;9.278;2024-03-23T08:23:02;2.43;;;2.23;;
3985;SDS011;2007;48.750;9.278;2024-03-23T08:25:31;3.10;;;2.50;;
3985;SDS011;2007;48.750;9.278;2024-03-23T08:27:59;2.37;;;2.13;;
3985;SDS011;2007;48.750;9.278;2024-03-23T08:30:25;2.77;;;2.57;;
3985;SDS011;2007;48.750;9.278;2024-03-23T08:32:52;2.67;;;2.40;;
3985;SDS011;2007;48.750;9.278;2024-03-23T08:35:18;2.73;;;2.40;;
3985;SDS011;2007;48.750;9.278;2024-03-23T08:37:45;2.80;;;2.50;;
3985;SDS011;2007;48.750;9.278;2024-03-23T08:40:12;2.67;;;2.27;;
3985;SDS011;2007;48.750;9.278;2024-03-23T08:42:40;2.70;;;1.90;;
3985;SDS011;2007;48.750;9.278;2024-03-23T08:45:06;3.70;;;3.00;;
3985;SDS011;2007;48.750;9.278;2024-03-23T08:47:34;2.67;;;2.20;;
3985;SDS011;2007;48.750;9.278;2024-03-23T08:50:01;2.30;;;2.10;;
3985;SDS011;2007;48.750;9.278;2024-03-23T08:52:29;3.20;;;2.17;;
3985;SDS011;2007;48.750;9.278;2024-03-23T08:54:55;2.00;;;1.63;;
3985;SDS011;2007;48.750;9.278;2024-03-23T08:57:22;2.53;;;1.80;;
3985;SDS011;2007;48.750;9.278;2024-03-23T08:59:49;2.17;;;1.70;;
3985;SDS011;2007;48.750;9.278;2024-03-23T09:02:16;3.13;;;2.50;;
3985;SDS011;2007;48.750;9.278;2024-03-23T09:04:43;2.80;;;2.03;;
3985;SDS011;2007;48.750;9.278;2024-03-23T09:07:11;1.97;;;1.67;;
3985;SDS011;2007;48.750;9.278;2024-03-23T09:09:38;2.53;;;1.90;;
3985;SDS011;2007;48.750;9.278;2024-03-23T09:12:05;2.60;;;2.10;;
3985;SDS011;2007;48.750;9.278;2024-03-23T09:14:31;2.57;;;1.80;;
3985;SDS011;2007;48.750;9.278;2024-03-23T09:17:00;2.10;;;1.83;;
3985;SDS011;2007;48.750;9.278;2024-03-23T09:19:26;1.90;;;1.50;;
3985;SDS011;2007;48.750;9.278;2024-03-23T09:21:54;2.40;;;2.10;;
3985;SDS011;2007;48.750;9.278;2024-03-23T09:24:20;2.27;;;1.73;;
3985;SDS011;2007;48.750;9.278;2024-03-23T09:26:47;3.63;;;1.90;;
3985;SDS011;2007;48.750;9.278;2024-03-23T09:29:14;2.80;;;2.00;;
3985;SDS011;2007;48.750;9.278;2024-03-23T09:31:41;2.13;;;1.93;;
3985;SDS011;2007;48.750;9.278;2024-03-23T09:34:08;2.60;;;1.73;;
3985;SDS011;2007;48.750;9.278;2024-03-23T09:36:35;2.37;;;1.63;;
3985;SDS011;2007;48.750;9.278;2024-03-23T09:39:01;3.40;;;2.50;;
3985;SDS011;2007;48.750;9.278;2024-03-23T09:41:29;3.40;;;2.23;;
3985;SDS011;2007;48.750;9.278;2024-03-23T09:43:55;2.00;;;1.60;;
3985;SDS011;2007;48.750;9.278;2024-03-23T09:46:22;2.30;;;1.87;;
3985;SDS011;2007;48.750;9.278;2024-03-23T09:48:48;2.77;;;1.80;;
3985;SDS011;2007;48.750;9.278;2024-03-23T09:51:17;2.50;;;2.10;;
3985;SDS011;2007;48.750;9.278;2024-03-23T09:53:43;2.50;;;1.90;;
3985;SDS011;2007;48.750;9.278;2024-03-23T09:56:10;2.80;;;1.83;;
3985;SDS011;2007;48.750;9.278;2024-03-23T09:58:36;2.27;;;1.70;;
3985;SDS011;2007;48.750;9.278;2024-03-23T10:01:03;2.67;;;2.00;;
3985;SDS011;2007;48.750;9.278;2024-03-23T10:03:30;2.03;;;1.83;;
3985;SDS011;2007;48.750;9.278;2024-03-23T10:06:00;2.43;;;1.77;;
3985;SDS011;2007;48.750;9.278;2024-03-23T10:08:29;2.70;;;2.00;;
3985;SDS011;2007;48.750;9.278;2024-03-23T10:10:58;2.07;;;1.73;;
3985;SDS011;2007;48.750;9.278;2024-03-23T10:13:38;2.00;;;1.67;;
3985;SDS011;2007;48.750;9.278;2024-03-23T10:16:08;3.53;;;2.10;;
3985;SDS011;2007;48.750;9.278;2024-03-23T10:18:36;4.03;;;2.00;;
3985;SDS011;2007;48.750;9.278;2024-03-23T10:21:08;2.10;;;1.70;;
3985;SDS011;2007;48.750;9.278;2024-03-23T10:23:37;3.67;;;2.00;;
3985;SDS011;2007;48.750;9.278;2024-03-23T10:26:12;2.67;;;2.00;;
3985;SDS011;2007;48.750;9.278;2024-03-23T10:28:50;2.50;;;1.73;;
3985;SDS011;2007;48.750;9.278;2024-03-23T10:31:18;3.00;;;2.13;;
3985;SDS011;2007;48.750;9.278;2024-03-23T10:33:45;2.43;;;1.70;;
3985;SDS011;2007;48.750;9.278;2024-03-23T10:36:12;4.73;;;2.33;;
3985;SDS011;2007;48.750;9.278;2024-03-23T10:38:41;2.43;;;1.70;;
3985;SDS011;2007;48.750;9.278;2024-03-23T10:41:09;2.23;;;1.80;;
3985;SDS011;2007;48.750;9.278;2024-03-23T10:43:36;2.10;;;1.77;;
3985;SDS011;2007;48.750;9.278;2024-03-23T10:46:04;3.50;;;1.80;;
3985;SDS011;2007;48.750;9.278;2024-03-23T10:48:30;1.70;;;1.30;;
3985;SDS011;2007;48.750;9.278;2024-03-23T10:50:58;2.33;;;1.73;;
3985;SDS011;2007;48.750;9.278;2024-03-23T10:53:25;2.37;;;1.70;;
3985;SDS011;2007;48.750;9.278;2024-03-23T10:55:54;3.20;;;1.90;;
3985;SDS011;2007;48.750;9.278;2024-03-23T10:58:22;3.33;;;1.70;;
3985;SDS011;2007;48.750;9.278;2024-03-23T11:00:52;2.93;;;1.70;;
3985;SDS011;2007;48.750;9.278;2024-03-23T11:03:31;1.97;;;1.70;;
3985;SDS011;2007;48.750;9.278;2024-03-23T11:05:59;3.10;;;1.80;;
3985;SDS011;2007;48.750;9.278;2024-03-23T11:08:33;3.00;;;1.73;;
3985;SDS011;2007;48.750;9.278;2024-03-23T11:13:57;2.93;;;1.70;;
3985;SDS011;2007;48.750;9.278;2024-03-23T11:16:25;2.93;;;1.77;;
3985;SDS011;2007;48.750;9.278;2024-03-23T11:18:53;2.07;;;1.60;;
3985;SDS011;2007;48.750;9.278;2024-03-23T11:24:18;3.10;;;1.97;;
3985;SDS011;2007;48.750;9.278;2024-03-23T11:26:47;1.93;;;1.43;;
3985;SDS011;2007;48.750;9.278;2024-03-23T11:29:14;2.10;;;1.70;;
3985;SDS011;2007;48.750;9.278;2024-03-23T11:31:45;2.70;;;1.67;;
3985;SDS011;2007;48.750;9.278;2024-03-23T11:34:12;2.20;;;1.87;;
3985;SDS011;2007;48.750;9.278;2024-03-23T11:36:39;2.20;;;1.50;;
3985;SDS011;2007;48.750;9.278;2024-03-23T11:39:12;2.50;;;2.00;;
3985;SDS011;2007;48.750;9.278;2024-03-23T11:41:49;2.77;;;1.80;;
3985;SDS011;2007;48.750;9.278;2024-03-23T11:44:16;1.93;;;1.47;;
3985;SDS011;2007;48.750;9.278;2024-03-23T11:46:44;2.17;;;1.70;;
3985;SDS011;2007;48.750;9.278;2024-03-23T11:49:19;1.80;;;1.30;;
3985;SDS011;2007;48.750;9.278;2024-03-23T11:51:48;2.83;;;1.67;;
3985;SDS011;2007;48.750;9.278;2024-03-23T11:54:15;2.20;;;1.33;;
3985;SDS011;2007;48.750;9.278;2024-03-23T11:56:54;2.40;;;1.80;;
3985;SDS011;2007;48.750;9.278;2024-03-23T11:59:31;1.90;;;1.40;;
3985;SDS011;2007;48.750;9.278;2024-03-23T12:01:59;2.10;;;1.70;;
3985;SDS011;2007;48.750;9.278;2024-03-23T12:04:26;2.73;;;1.47;;
3985;SDS011;2007;48.750;9.278;2024-03-23T12:07:08;2.30;;;1.77;;
3985;SDS011;2007;48.750;9.278;2024-03-23T12:09:35;2.83;;;1.77;;
3985;SDS011;2007;48.750;9.278;2024-03-23T12:12:10;2.10;;;1.50;;
3985;SDS011;2007;48.750;9.278;2024-03-23T12:14:39;2.50;;;1.33;;
3985;SDS011;2007;48.750;9.278;2024-03-23T12:17:10;2.30;;;1.47;;
3985;SDS011;2007;48.750;9.278;2024-03-23T12:19:37;2.07;;;1.70;;
3985;SDS011;2007;48.750;9.278;2024-03-23T12:22:04;3.17;;;1.70;;
3985;SDS011;2007;48.750;9.278;2024-03-23T12:24:30;2.80;;;1.60;;
3985;SDS011;2007;48.750;9.278;2024-03-23T12:26:59;2.83;;;1.63;;
3985;SDS011;2007;48.750;9.278;2024-03-23T12:29:31;1.87;;;1.60;;
3985;SDS011;2007;48.750;9.278;2024-03-23T12:31:59;2.47;;;1.60;;
3985;SDS011;2007;48.750;9.278;2024-03-23T12:34:25;1.90;;;1.47;;
3985;SDS011;2007;48.750;9.278;2024-03-23T12:36:52;2.43;;;1.57;;
3985;SDS011;2007;48.750;9.278;2024-03-23T12:39:18;2.07;;;1.47;;
3985;SDS011;2007;48.750;9.278;2024-03-23T12:41:46;2.20;;;1.40;;
3985;SDS011;2007;48.750;9.278;2024-03-23T12:44:12;2.27;;;1.47;;
3985;SDS011;2007;48.750;9.278;2024-03-23T12:46:41;1.80;;;1.20;;
3985;SDS011;2007;48.750;9.278;2024-03-23T12:49:07;2.00;;;1.70;;
3985;SDS011;2007;48.750;9.278;2024-03-23T12:51:34;2.10;;;1.73;;
3985;SDS011;2007;48.750;9.278;2024-03-23T12:54:01;1.93;;;1.47;;
3985;SDS011;2007;48.750;9.278;2024-03-23T12:56:28;2.33;;;1.67;;
3985;SDS011;2007;48.750;9.278;2024-03-23T12:58:54;2.00;;;1.43;;
3985;SDS011;2007;48.750;9.278;2024-03-23T13:01:22;1.97;;;1.43;;
3985;SDS011;2007;48.750;9.278;2024-03-23T13:03:49;2.30;;;1.70;;
3985;SDS011;2007;48.750;9.278;2024-03-23T13:06:17;2.00;;;1.30;;
3985;SDS011;2007;48.750;9.278;2024-03-23T13:08:43;2.40;;;1.70;;
3985;SDS011;2007;48.750;9.278;2024-03-23T13:11:11;2.50;;;1.80;;
3985;SDS011;2007;48.750;9.278;2024-03-23T13:13:38;1.70;;;1.17;;
3985;SDS011;2007;48.750;9.278;2024-03-23T13:16:07;2.87;;;1.23;;
3985;SDS011;2007;48.750;9.278;2024-03-23T13:18:33;2.10;;;1.20;;
3985;SDS011;2007;48.750;9.278;2024-03-23T13:21:02;2.70;;;1.70;;
3985;SDS011;2007;48.750;9.278;2024-03-23T13:23:29;2.00;;;1.60;;
3985;SDS011;2007;48.750;9.278;2024-03-23T13:25:57;2.23;;;1.23;;
3985;SDS011;2007;48.750;9.278;2024-03-23T13:28:24;1.80;;;1.30;;
3985;SDS011;2007;48.750;9.278;2024-03-23T13:30:51;1.90;;;1.30;;
3985;SDS011;2007;48.750;9.278;2024-03-23T13:33:17;3.20;;;1.60;;
3985;SDS011;2007;48.750;9.278;2024-03-23T13:35:51;1.87;;;1.37;;
3985;SDS011;2007;48.750;9.278;2024-03-23T13:38:18;3.10;;;1.33;;
3985;SDS011;2007;48.750;9.278;2024-03-23T13:40:49;2.33;;;1.10;;
3985;SDS011;2007;48.750;9.278;2024-03-23T13:43:19;2.17;;;1.30;;
3985;SDS011;2007;48.750;9.278;2024-03-23T13:45:46;2.07;;;1.27;;
3985;SDS011;2007;48.750;9.278;2024-03-23T13:48:13;2.30;;;1.20;;
3985;SDS011;2007;48.750;9.278;2024-03-23T13:50:40;2.30;;;1.30;;
3985;SDS011;2007;48.750;9.278;2024-03-23T13:53:06;2.70;;;1.20;;
3985;SDS011;2007;48.750;9.278;2024-03-23T13:55:35;2.27;;;1.37;;
3985;SDS011;2007;48.750;9.278;2024-03-23T13:58:01;2.07;;;1.30;;
3985;SDS011;2007;48.750;9.278;2024-03-23T14:00:29;1.73;;;1.10;;
3985;SDS011;2007;48.750;9.278;2024-03-23T14:02:57;1.83;;;1.03;;
3985;SDS011;2007;48.750;9.278;2024-03-23T14:05:24;2.50;;;1.37;;
3985;SDS011;2007;48.750;9.278;2024-03-23T14:07:50;1.73;;;1.13;;
3985;SDS011;2007;48.750;9.278;2024-03-23T14:10:17;1.60;;;0.93;;
3985;SDS011;2007;48.750;9.278;2024-03-23T14:12:45;3.20;;;1.30;;
3985;SDS011;2007;48.750;9.278;2024-03-23T14:15:12;3.80;;;1.07;;
3985;SDS011;2007;48.750;9.278;2024-03-23T14:17:38;2.00;;;1.43;;
3985;SDS011;2007;48.750;9.278;2024-03-23T14:20:05;1.87;;;1.23;;
3985;SDS011;2007;48.750;9.278;2024-03-23T14:22:34;1.80;;;1.00;;
3985;SDS011;2007;48.750;9.278;2024-03-23T14:25:01;3.10;;;1.37;;
3985;SDS011;2007;48.750;9.278;2024-03-23T14:27:27;1.90;;;1.30;;
3985;SDS011;2007;48.750;9.278;2024-03-23T14:29:56;2.90;;;1.47;;
3985;SDS011;2007;48.750;9.278;2024-03-23T14:32:22;2.33;;;1.30;;
3985;SDS011;2007;48.750;9.278;2024-03-23T14:34:49;2.23;;;1.23;;
3985;SDS011;2007;48.750;9.278;2024-03-23T14:37:17;3.10;;;1.47;;
3985;SDS011;2007;48.750;9.278;2024-03-23T14:39:44;1.90;;;1.13;;
3985;SDS011;2007;48.750;9.278;2024-03-23T14:42:11;1.70;;;1.30;;
3985;SDS011;2007;48.750;9.278;2024-03-23T14:44:38;2.10;;;1.40;;
3985;SDS011;2007;48.750;9.278;2024-03-23T14:47:05;2.23;;;1.20;;
3985;SDS011;2007;48.750;9.278;2024-03-23T14:49:32;2.70;;;1.20;;
3985;SDS011;2007;48.750;9.278;2024-03-23T14:51:58;1.90;;;1.20;;
3985;SDS011;2007;48.750;9.278;2024-03-23T14:54:25;2.23;;;1.47;;
3985;SDS011;2007;48.750;9.278;2024-03-23T14:56:51;2.10;;;1.53;;
3985;SDS011;2007;48.750;9.278;2024-03-23T14:59:18;2.00;;;1.37;;
3985;SDS011;2007;48.750;9.278;2024-03-23T15:01:45;1.90;;;1.30;;
3985;SDS011;2007;48.750;9.278;2024-03-23T15:04:13;1.83;;;1.33;;
3985;SDS011;2007;48.750;9.278;2024-03-23T15:06:39;2.00;;;1.10;;
3985;SDS011;2007;48.750;9.278;2024-03-23T15:09:07;3.17;;;1.30;;
3985;SDS011;2007;48.750;9.278;2024-03-23T15:11:36;2.07;;;1.37;;
3985;SDS011;2007;48.750;9.278;2024-03-23T15:14:03;2.23;;;1.43;;
3985;SDS011;2007;48.750;9.278;2024-03-23T15:16:29;1.63;;;1.10;;
3985;SDS011;2007;48.750;9.278;2024-03-23T15:18:56;1.53;;;0.87;;
3985;SDS011;2007;48.750;9.278;2024-03-23T15:21:24;2.07;;;1.03;;
3985;SDS011;2007;48.750;9.278;2024-03-23T15:23:51;1.80;;;1.20;;
3985;SDS011;2007;48.750;9.278;2024-03-23T15:26:17;1.70;;;1.10;;
3985;SDS011;2007;48.750;9.278;2024-03-23T15:28:47;1.97;;;1.07;;
3985;SDS011;2007;48.750;9.278;2024-03-23T15:31:35;1.60;;;1.00;;
3985;SDS011;2007;48.750;9.278;2024-03-23T15:34:02;2.40;;;1.13;;
3985;SDS011;2007;48.750;9.278;2024-03-23T15:36:31;4.10;;;1.30;;
3985;SDS011;2007;48.750;9.278;2024-03-23T15:38:58;1.50;;;0.90;;
3985;SDS011;2007;48.750;9.278;2024-03-23T15:41:24;2.37;;;1.10;;
3985;SDS011;2007;48.750;9.278;2024-03-23T15:43:51;2.50;;;1.50;;
3985;SDS011;2007;48.750;9.278;2024-03-23T15:46:17;1.70;;;1.10;;
3985;SDS011;2007;48.750;9.278;2024-03-23T15:48:44;2.03;;;1.00;;
3985;SDS011;2007;48.750;9.278;2024-03-23T15:51:12;1.83;;;1.40;;
3985;SDS011;2007;48.750;9.278;2024-03-23T15:53:40;1.60;;;1.00;;
3985;SDS011;2007;48.750;9.278;2024-03-23T15:56:06;2.00;;;0.97;;
3985;SDS011;2007;48.750;9.278;2024-03-23T15:58:33;2.00;;;0.97;;
3985;SDS011;2007;48.750;9.278;2024-03-23T16:01:00;1.93;;;1.10;;
3985;SDS011;2007;48.750;9.278;2024-03-23T16:03:28;2.57;;;1.13;;
3985;SDS011;2007;48.750;9.278;2024-03-23T16:05:55;4.10;;;1.30;;
3985;SDS011;2007;48.750;9.278;2024-03-23T16:08:23;1.90;;;1.10;;
3985;SDS011;2007;48.750;9.278;2024-03-23T16:10:51;1.60;;;0.90;;
3985;SDS011;2007;48.750;9.278;2024-03-23T16:13:20;1.93;;;1.10;;
3985;SDS011;2007;48.750;9.278;2024-03-23T16:15:46;1.70;;;1.10;;
3985;SDS011;2007;48.750;9.278;2024-03-23T16:18:20;2.30;;;1.00;;